sensor_id;sensor_type;location;lat;lon;timestamp;temperature;humidity
69776;DHT22;57049;51.450;-2.516;2024-03-06T00:02:11;2.53;99.99
69776;DHT22;57049;51.450;-2.516;2024-03-06T00:04:37;2.49;99.99
69776;DHT22;57049;51.450;-2.516;2024-03-06T00:07:03;2.49;99.99
69776;DHT22;57049;51.450;-2.516;2024-03-06T00:09:28;2.48;99.99
69776;DHT22;57049;51.450;-2.516;2024-03-06T00:11:54;2.48;99.99
69776;DHT22;57049;51.450;-2.516;2024-03-06T00:14:21;2.46;99.99
69776;DHT22;57049;51.450;-2.516;2024-03-06T00:16:52;2.50;99.99
69776;DHT22;57049;51.450;-2.516;2024-03-06T00:19:21;2.44;99.99
69776;DHT22;57049;51.450;-2.516;2024-03-06T00:21:47;2.39;99.99
69776;DHT22;57049;51.450;-2.516;2024-03-06T00:24:13;2.36;99.99
69776;DHT22;57049;51.450;-2.516;2024-03-06T00:26:40;2.34;99.99
69776;DHT22;57049;51.450;-2.516;2024-03-06T00:29:06;2.35;99.99
69776;DHT22;57049;51.450;-2.516;2024-03-06T00:31:34;2.35;99.99
69776;DHT22;57049;51.450;-2.516;2024-03-06T00:33:59;2.31;99.99
69776;DHT22;57049;51.450;-2.516;2024-03-06T00:36:25;2.28;99.99
69776;DHT22;57049;51.450;-2.516;2024-03-06T00:38:50;2.28;99.99
69776;DHT22;57049;51.450;-2.516;2024-03-06T00:41:16;2.29;99.99
69776;DHT22;57049;51.450;-2.516;2024-03-06T00:43:41;2.25;99.99
69776;DHT22;57049;51.450;-2.516;2024-03-06T00:46:07;2.25;99.99
69776;DHT22;57049;51.450;-2.516;2024-03-06T00:48:32;2.24;99.99
69776;DHT22;57049;51.450;-2.516;2024-03-06T00:50:58;2.22;99.99
69776;DHT22;57049;51.450;-2.516;2024-03-06T00:53:23;2.21;99.99
69776;DHT22;57049;51.450;-2.516;2024-03-06T00:55:49;2.25;99.99
69776;DHT22;57049;51.450;-2.516;2024-03-06T00:58:15;2.24;99.99
69776;DHT22;57049;51.450;-2.516;2024-03-06T01:00:40;2.24;99.99
69776;DHT22;57049;51.450;-2.516;2024-03-06T01:03:06;2.26;99.99
69776;DHT22;57049;51.450;-2.516;2024-03-06T01:05:31;2.28;99.99
69776;DHT22;57049;51.450;-2.516;2024-03-06T01:07:57;2.28;99.99
69776;DHT22;57049;51.450;-2.516;2024-03-06T01:10:24;2.26;99.99
69776;DHT22;57049;51.450;-2.516;2024-03-06T01:12:50;2.28;99.99
69776;DHT22;57049;51.450;-2.516;2024-03-06T01:15:15;2.31;99.99
69776;DHT22;57049;51.450;-2.516;2024-03-06T01:17:40;2.35;99.99
69776;DHT22;57049;51.450;-2.516;2024-03-06T01:20:06;2.38;99.99
69776;DHT22;57049;51.450;-2.516;2024-03-06T01:22:33;2.41;99.99
69776;DHT22;57049;51.450;-2.516;2024-03-06T01:24:59;2.42;99.99
69776;DHT22;57049;51.450;-2.516;2024-03-06T01:27:26;2.46;99.99
69776;DHT22;57049;51.450;-2.516;2024-03-06T01:29:51;2.48;99.99
69776;DHT22;57049;51.450;-2.516;2024-03-06T01:32:17;2.58;99.99
69776;DHT22;57049;51.450;-2.516;2024-03-06T01:34:42;2.59;99.99
69776;DHT22;57049;51.450;-2.516;2024-03-06T01:37:08;2.67;99.99
69776;DHT22;57049;51.450;-2.516;2024-03-06T01:39:34;2.71;99.99
69776;DHT22;57049;51.450;-2.516;2024-03-06T01:42:01;2.80;99.99
69776;DHT22;57049;51.450;-2.516;2024-03-06T01:44:26;2.87;99.99
69776;DHT22;57049;51.450;-2.516;2024-03-06T01:46:52;2.92;99.99
69776;DHT22;57049;51.450;-2.516;2024-03-06T01:49:18;2.97;99.99
69776;DHT22;57049;51.450;-2.516;2024-03-06T01:51:49;3.04;99.99
69776;DHT22;57049;51.450;-2.516;2024-03-06T01:54:15;3.14;99.99
69776;DHT22;57049;51.450;-2.516;2024-03-06T01:56:45;3.18;99.99
69776;DHT22;57049;51.450;-2.516;2024-03-06T01:59:15;3.20;99.99
69776;DHT22;57049;51.450;-2.516;2024-03-06T02:01:42;3.17;99.99
69776;DHT22;57049;51.450;-2.516;2024-03-06T02:04:08;3.18;99.99
69776;DHT22;57049;51.450;-2.516;2024-03-06T02:06:38;3.21;99.99
69776;DHT22;57049;51.450;-2.516;2024-03-06T02:09:04;3.18;99.99
69776;DHT22;57049;51.450;-2.516;2024-03-06T02:11:29;3.18;99.99
69776;DHT22;57049;51.450;-2.516;2024-03-06T02:13:55;3.20;99.99
69776;DHT22;57049;51.450;-2.516;2024-03-06T02:16:21;3.27;99.99
69776;DHT22;57049;51.450;-2.516;2024-03-06T02:18:53;3.27;99.99
69776;DHT22;57049;51.450;-2.516;2024-03-06T02:21:22;3.21;99.99
69776;DHT22;57049;51.450;-2.516;2024-03-06T02:23:48;3.18;99.99
69776;DHT22;57049;51.450;-2.516;2024-03-06T02:26:15;3.16;99.99
69776;DHT22;57049;51.450;-2.516;2024-03-06T02:28:47;3.11;99.99
69776;DHT22;57049;51.450;-2.516;2024-03-06T02:31:12;3.07;99.99
69776;DHT22;57049;51.450;-2.516;2024-03-06T02:33:38;2.99;99.99
69776;DHT22;57049;51.450;-2.516;2024-03-06T02:36:05;3.01;99.99
69776;DHT22;57049;51.450;-2.516;2024-03-06T02:38:30;2.95;99.99
69776;DHT22;57049;51.450;-2.516;2024-03-06T02:40:56;2.92;99.99
69776;DHT22;57049;51.450;-2.516;2024-03-06T02:43:21;2.87;99.99
69776;DHT22;57049;51.450;-2.516;2024-03-06T02:45:47;2.87;99.99
69776;DHT22;57049;51.450;-2.516;2024-03-06T02:48:12;2.86;99.99
69776;DHT22;57049;51.450;-2.516;2024-03-06T02:50:38;2.85;99.99
69776;DHT22;57049;51.450;-2.516;2024-03-06T02:53:03;2.82;99.99
69776;DHT22;57049;51.450;-2.516;2024-03-06T02:55:29;2.82;99.99
69776;DHT22;57049;51.450;-2.516;2024-03-06T02:57:55;2.83;99.99
69776;DHT22;57049;51.450;-2.516;2024-03-06T03:00:20;2.79;99.99
69776;DHT22;57049;51.450;-2.516;2024-03-06T03:02:47;2.79;99.99
69776;DHT22;57049;51.450;-2.516;2024-03-06T03:05:12;2.82;99.99
69776;DHT22;57049;51.450;-2.516;2024-03-06T03:07:41;2.77;99.99
69776;DHT22;57049;51.450;-2.516;2024-03-06T03:10:07;2.80;99.99
69776;DHT22;57049;51.450;-2.516;2024-03-06T03:12:33;2.85;99.99
69776;DHT22;57049;51.450;-2.516;2024-03-06T03:14:59;2.80;99.99
69776;DHT22;57049;51.450;-2.516;2024-03-06T03:17:24;2.75;99.99
69776;DHT22;57049;51.450;-2.516;2024-03-06T03:19:49;2.69;99.99
69776;DHT22;57049;51.450;-2.516;2024-03-06T03:22:15;2.65;99.99
69776;DHT22;57049;51.450;-2.516;2024-03-06T03:24:43;2.58;99.99
69776;DHT22;57049;51.450;-2.516;2024-03-06T03:27:09;2.50;99.99
69776;DHT22;57049;51.450;-2.516;2024-03-06T03:29:34;2.48;99.99
69776;DHT22;57049;51.450;-2.516;2024-03-06T03:31:59;2.39;99.99
69776;DHT22;57049;51.450;-2.516;2024-03-06T03:34:25;2.32;99.99
69776;DHT22;57049;51.450;-2.516;2024-03-06T03:36:50;2.26;99.99
69776;DHT22;57049;51.450;-2.516;2024-03-06T03:39:16;2.20;99.99
69776;DHT22;57049;51.450;-2.516;2024-03-06T03:41:48;2.20;99.99
69776;DHT22;57049;51.450;-2.516;2024-03-06T03:44:14;2.15;99.99
69776;DHT22;57049;51.450;-2.516;2024-03-06T03:46:40;2.11;99.99
69776;DHT22;57049;51.450;-2.516;2024-03-06T03:49:06;2.05;99.99
69776;DHT22;57049;51.450;-2.516;2024-03-06T03:51:32;2.00;99.99
69776;DHT22;57049;51.450;-2.516;2024-03-06T03:53:57;1.91;99.99
69776;DHT22;57049;51.450;-2.516;2024-03-06T03:56:22;1.87;99.99
69776;DHT22;57049;51.450;-2.516;2024-03-06T03:58:48;1.80;99.99
69776;DHT22;57049;51.450;-2.516;2024-03-06T04:01:13;1.77;99.99
69776;DHT22;57049;51.450;-2.516;2024-03-06T04:03:39;1.75;99.99
69776;DHT22;57049;51.450;-2.516;2024-03-06T04:06:06;1.64;99.99
69776;DHT22;57049;51.450;-2.516;2024-03-06T04:08:32;1.59;99.99
69776;DHT22;57049;51.450;-2.516;2024-03-06T04:10:58;1.53;99.99
69776;DHT22;57049;51.450;-2.516;2024-03-06T04:13:23;1.49;99.99
69776;DHT22;57049;51.450;-2.516;2024-03-06T04:15:48;1.49;99.99
69776;DHT22;57049;51.450;-2.516;2024-03-06T04:18:14;1.47;99.99
69776;DHT22;57049;51.450;-2.516;2024-03-06T04:20:39;1.47;99.99
69776;DHT22;57049;51.450;-2.516;2024-03-06T04:23:05;1.47;99.99
69776;DHT22;57049;51.450;-2.516;2024-03-06T04:25:30;1.46;99.99
69776;DHT22;57049;51.450;-2.516;2024-03-06T04:27:56;1.44;99.99
69776;DHT22;57049;51.450;-2.516;2024-03-06T04:30:21;1.44;99.99
69776;DHT22;57049;51.450;-2.516;2024-03-06T04:32:47;1.44;99.99
69776;DHT22;57049;51.450;-2.516;2024-03-06T04:35:12;1.44;99.99
69776;DHT22;57049;51.450;-2.516;2024-03-06T04:37:37;1.42;99.99
69776;DHT22;57049;51.450;-2.516;2024-03-06T04:40:03;1.47;99.99
69776;DHT22;57049;51.450;-2.516;2024-03-06T04:42:36;1.49;99.99
69776;DHT22;57049;51.450;-2.516;2024-03-06T04:45:03;1.43;99.99
69776;DHT22;57049;51.450;-2.516;2024-03-06T04:47:28;1.39;99.99
69776;DHT22;57049;51.450;-2.516;2024-03-06T04:49:54;1.35;99.99
69776;DHT22;57049;51.450;-2.516;2024-03-06T04:52:19;1.26;99.99
69776;DHT22;57049;51.450;-2.516;2024-03-06T04:54:45;1.25;99.99
69776;DHT22;57049;51.450;-2.516;2024-03-06T04:57:10;1.23;99.99
69776;DHT22;57049;51.450;-2.516;2024-03-06T04:59:36;1.15;99.99
69776;DHT22;57049;51.450;-2.516;2024-03-06T05:02:01;1.13;99.99
69776;DHT22;57049;51.450;-2.516;2024-03-06T05:04:28;1.16;99.99
69776;DHT22;57049;51.450;-2.516;2024-03-06T05:06:56;1.25;99.99
69776;DHT22;57049;51.450;-2.516;2024-03-06T05:09:22;1.47;99.99
69776;DHT22;57049;51.450;-2.516;2024-03-06T05:11:47;1.60;99.99
69776;DHT22;57049;51.450;-2.516;2024-03-06T05:14:16;1.71;99.99
69776;DHT22;57049;51.450;-2.516;2024-03-06T05:16:41;1.75;99.99
69776;DHT22;57049;51.450;-2.516;2024-03-06T05:19:07;1.68;99.99
69776;DHT22;57049;51.450;-2.516;2024-03-06T05:21:32;1.62;99.99
69776;DHT22;57049;51.450;-2.516;2024-03-06T05:23:58;1.54;99.99
69776;DHT22;57049;51.450;-2.516;2024-03-06T05:26:24;1.42;99.99
69776;DHT22;57049;51.450;-2.516;2024-03-06T05:28:49;1.43;99.99
69776;DHT22;57049;51.450;-2.516;2024-03-06T05:31:19;1.40;99.99
69776;DHT22;57049;51.450;-2.516;2024-03-06T05:33:50;1.33;99.99
69776;DHT22;57049;51.450;-2.516;2024-03-06T05:36:18;1.23;99.99
69776;DHT22;57049;51.450;-2.516;2024-03-06T05:38:44;1.16;99.99
69776;DHT22;57049;51.450;-2.516;2024-03-06T05:41:10;1.13;99.99
69776;DHT22;57049;51.450;-2.516;2024-03-06T05:43:36;1.11;99.99
69776;DHT22;57049;51.450;-2.516;2024-03-06T05:46:02;1.08;99.99
69776;DHT22;57049;51.450;-2.516;2024-03-06T05:48:27;1.05;99.99
69776;DHT22;57049;51.450;-2.516;2024-03-06T05:50:53;1.01;99.99
69776;DHT22;57049;51.450;-2.516;2024-03-06T05:53:25;1.01;99.99
69776;DHT22;57049;51.450;-2.516;2024-03-06T05:55:51;0.96;99.99
69776;DHT22;57049;51.450;-2.516;2024-03-06T05:58:17;0.91;99.99
69776;DHT22;57049;51.450;-2.516;2024-03-06T06:00:43;0.85;99.99
69776;DHT22;57049;51.450;-2.516;2024-03-06T06:03:09;0.85;99.99
69776;DHT22;57049;51.450;-2.516;2024-03-06T06:05:38;0.81;99.99
69776;DHT22;57049;51.450;-2.516;2024-03-06T06:08:05;0.80;99.99
69776;DHT22;57049;51.450;-2.516;2024-03-06T06:10:30;0.78;99.99
69776;DHT22;57049;51.450;-2.516;2024-03-06T06:12:56;0.72;99.99
69776;DHT22;57049;51.450;-2.516;2024-03-06T06:15:22;0.68;99.99
69776;DHT22;57049;51.450;-2.516;2024-03-06T06:17:48;0.60;99.99
69776;DHT22;57049;51.450;-2.516;2024-03-06T06:20:13;0.56;99.99
69776;DHT22;57049;51.450;-2.516;2024-03-06T06:22:43;0.50;99.99
69776;DHT22;57049;51.450;-2.516;2024-03-06T06:25:09;0.46;99.99
69776;DHT22;57049;51.450;-2.516;2024-03-06T06:27:35;0.46;99.99
69776;DHT22;57049;51.450;-2.516;2024-03-06T06:30:00;0.43;99.99
69776;DHT22;57049;51.450;-2.516;2024-03-06T06:32:26;0.43;99.99
69776;DHT22;57049;51.450;-2.516;2024-03-06T06:34:51;0.43;99.99
69776;DHT22;57049;51.450;-2.516;2024-03-06T06:37:17;0.40;99.99
69776;DHT22;57049;51.450;-2.516;2024-03-06T06:39:44;0.40;99.99
69776;DHT22;57049;51.450;-2.516;2024-03-06T06:42:10;0.34;99.99
69776;DHT22;57049;51.450;-2.516;2024-03-06T06:44:36;0.33;99.99
69776;DHT22;57049;51.450;-2.516;2024-03-06T06:47:02;0.36;99.99
69776;DHT22;57049;51.450;-2.516;2024-03-06T06:49:27;0.34;99.99
69776;DHT22;57049;51.450;-2.516;2024-03-06T06:51:53;0.34;99.99
69776;DHT22;57049;51.450;-2.516;2024-03-06T06:54:19;0.36;99.99
69776;DHT22;57049;51.450;-2.516;2024-03-06T06:56:44;0.37;99.99
69776;DHT22;57049;51.450;-2.516;2024-03-06T06:59:09;0.37;99.99
69776;DHT22;57049;51.450;-2.516;2024-03-06T07:01:35;0.36;99.99
69776;DHT22;57049;51.450;-2.516;2024-03-06T07:04:01;0.37;99.99
69776;DHT22;57049;51.450;-2.516;2024-03-06T07:06:27;0.38;99.99
69776;DHT22;57049;51.450;-2.516;2024-03-06T07:08:52;0.43;99.99
69776;DHT22;57049;51.450;-2.516;2024-03-06T07:11:18;0.50;99.99
69776;DHT22;57049;51.450;-2.516;2024-03-06T07:13:44;0.54;99.99
69776;DHT22;57049;51.450;-2.516;2024-03-06T07:16:09;0.57;99.99
69776;DHT22;57049;51.450;-2.516;2024-03-06T07:18:35;0.61;99.99
69776;DHT22;57049;51.450;-2.516;2024-03-06T07:21:01;0.62;99.99
69776;DHT22;57049;51.450;-2.516;2024-03-06T07:23:26;0.68;99.99
69776;DHT22;57049;51.450;-2.516;2024-03-06T07:25:52;0.74;99.99
69776;DHT22;57049;51.450;-2.516;2024-03-06T07:28:17;0.84;99.99
69776;DHT22;57049;51.450;-2.516;2024-03-06T07:30:44;0.89;99.99
69776;DHT22;57049;51.450;-2.516;2024-03-06T07:33:09;1.01;99.99
69776;DHT22;57049;51.450;-2.516;2024-03-06T07:35:35;1.16;99.99
69776;DHT22;57049;51.450;-2.516;2024-03-06T07:38:03;1.36;99.99
69776;DHT22;57049;51.450;-2.516;2024-03-06T07:40:30;1.52;99.99
69776;DHT22;57049;51.450;-2.516;2024-03-06T07:42:56;1.57;99.99
69776;DHT22;57049;51.450;-2.516;2024-03-06T07:45:22;1.56;99.99
69776;DHT22;57049;51.450;-2.516;2024-03-06T07:47:47;1.53;99.99
69776;DHT22;57049;51.450;-2.516;2024-03-06T07:50:13;1.56;99.99
69776;DHT22;57049;51.450;-2.516;2024-03-06T07:52:44;1.64;99.99
69776;DHT22;57049;51.450;-2.516;2024-03-06T07:55:10;1.70;99.99
69776;DHT22;57049;51.450;-2.516;2024-03-06T07:57:35;1.84;99.99
69776;DHT22;57049;51.450;-2.516;2024-03-06T08:00:01;2.00;99.99
69776;DHT22;57049;51.450;-2.516;2024-03-06T08:02:33;2.07;99.99
69776;DHT22;57049;51.450;-2.516;2024-03-06T08:04:59;2.17;99.99
69776;DHT22;57049;51.450;-2.516;2024-03-06T08:07:24;2.11;99.99
69776;DHT22;57049;51.450;-2.516;2024-03-06T08:09:49;2.00;99.99
69776;DHT22;57049;51.450;-2.516;2024-03-06T08:12:15;1.90;99.99
69776;DHT22;57049;51.450;-2.516;2024-03-06T08:14:40;1.88;99.99
69776;DHT22;57049;51.450;-2.516;2024-03-06T08:17:06;1.84;99.99
69776;DHT22;57049;51.450;-2.516;2024-03-06T08:19:31;1.90;99.99
69776;DHT22;57049;51.450;-2.516;2024-03-06T08:21:57;2.00;99.99
69776;DHT22;57049;51.450;-2.516;2024-03-06T08:24:22;2.08;99.99
69776;DHT22;57049;51.450;-2.516;2024-03-06T08:26:47;2.21;99.99
69776;DHT22;57049;51.450;-2.516;2024-03-06T08:29:14;2.28;99.99
69776;DHT22;57049;51.450;-2.516;2024-03-06T08:31:39;2.36;99.99
69776;DHT22;57049;51.450;-2.516;2024-03-06T08:34:05;2.48;99.99
69776;DHT22;57049;51.450;-2.516;2024-03-06T08:36:30;2.65;99.99
69776;DHT22;57049;51.450;-2.516;2024-03-06T08:38:56;2.76;99.99
69776;DHT22;57049;51.450;-2.516;2024-03-06T08:41:21;3.06;99.99
69776;DHT22;57049;51.450;-2.516;2024-03-06T08:43:50;3.04;99.99
69776;DHT22;57049;51.450;-2.516;2024-03-06T08:46:15;2.90;99.99
69776;DHT22;57049;51.450;-2.516;2024-03-06T08:48:41;2.93;99.99
69776;DHT22;57049;51.450;-2.516;2024-03-06T08:51:06;2.93;99.99
69776;DHT22;57049;51.450;-2.516;2024-03-06T08:53:36;2.89;99.99
69776;DHT22;57049;51.450;-2.516;2024-03-06T08:56:02;2.89;99.99
69776;DHT22;57049;51.450;-2.516;2024-03-06T08:58:27;2.93;99.99
69776;DHT22;57049;51.450;-2.516;2024-03-06T09:00:53;3.06;99.99
69776;DHT22;57049;51.450;-2.516;2024-03-06T09:03:19;3.16;99.99
69776;DHT22;57049;51.450;-2.516;2024-03-06T09:05:44;3.24;99.99
69776;DHT22;57049;51.450;-2.516;2024-03-06T09:08:09;3.32;99.99
69776;DHT22;57049;51.450;-2.516;2024-03-06T09:10:37;3.34;99.99
69776;DHT22;57049;51.450;-2.516;2024-03-06T09:13:02;3.41;99.99
69776;DHT22;57049;51.450;-2.516;2024-03-06T09:15:28;3.48;99.99
69776;DHT22;57049;51.450;-2.516;2024-03-06T09:17:53;3.54;99.99
69776;DHT22;57049;51.450;-2.516;2024-03-06T09:20:19;3.55;99.99
69776;DHT22;57049;51.450;-2.516;2024-03-06T09:22:45;3.52;99.99
69776;DHT22;57049;51.450;-2.516;2024-03-06T09:25:11;3.60;99.99
69776;DHT22;57049;51.450;-2.516;2024-03-06T09:27:40;3.67;99.99
69776;DHT22;57049;51.450;-2.516;2024-03-06T09:30:06;3.62;99.99
69776;DHT22;57049;51.450;-2.516;2024-03-06T09:32:31;3.74;99.99
69776;DHT22;57049;51.450;-2.516;2024-03-06T09:34:58;3.78;99.99
69776;DHT22;57049;51.450;-2.516;2024-03-06T09:37:24;3.92;99.99
69776;DHT22;57049;51.450;-2.516;2024-03-06T09:39:49;4.09;99.99
69776;DHT22;57049;51.450;-2.516;2024-03-06T09:42:15;4.33;99.99
69776;DHT22;57049;51.450;-2.516;2024-03-06T09:44:40;4.49;99.99
69776;DHT22;57049;51.450;-2.516;2024-03-06T09:47:06;4.67;99.99
69776;DHT22;57049;51.450;-2.516;2024-03-06T09:49:32;4.74;99.99
69776;DHT22;57049;51.450;-2.516;2024-03-06T09:51:59;4.87;99.99
69776;DHT22;57049;51.450;-2.516;2024-03-06T09:54:26;4.96;99.99
69776;DHT22;57049;51.450;-2.516;2024-03-06T09:56:52;5.01;99.99
69776;DHT22;57049;51.450;-2.516;2024-03-06T09:59:17;5.11;99.99
69776;DHT22;57049;51.450;-2.516;2024-03-06T10:01:55;5.22;99.99
69776;DHT22;57049;51.450;-2.516;2024-03-06T10:04:26;5.34;99.99
69776;DHT22;57049;51.450;-2.516;2024-03-06T10:06:56;5.46;99.99
69776;DHT22;57049;51.450;-2.516;2024-03-06T10:09:23;5.62;99.99
69776;DHT22;57049;51.450;-2.516;2024-03-06T10:11:49;5.78;99.99
69776;DHT22;57049;51.450;-2.516;2024-03-06T10:14:15;5.91;99.99
69776;DHT22;57049;51.450;-2.516;2024-03-06T10:17:00;5.96;99.65
69776;DHT22;57049;51.450;-2.516;2024-03-06T10:19:27;6.04;99.24
69776;DHT22;57049;51.450;-2.516;2024-03-06T10:21:57;6.17;99.43
69776;DHT22;57049;51.450;-2.516;2024-03-06T10:24:24;6.28;98.69
69776;DHT22;57049;51.450;-2.516;2024-03-06T10:26:50;6.38;98.92
69776;DHT22;57049;51.450;-2.516;2024-03-06T10:29:17;6.46;99.12
69776;DHT22;57049;51.450;-2.516;2024-03-06T10:31:57;6.61;98.33
69776;DHT22;57049;51.450;-2.516;2024-03-06T10:34:27;6.64;97.38
69776;DHT22;57049;51.450;-2.516;2024-03-06T10:37:00;6.75;98.32
69776;DHT22;57049;51.450;-2.516;2024-03-06T10:39:26;6.86;97.65
69776;DHT22;57049;51.450;-2.516;2024-03-06T10:41:54;6.92;97.41
69776;DHT22;57049;51.450;-2.516;2024-03-06T10:44:24;6.96;96.69
69776;DHT22;57049;51.450;-2.516;2024-03-06T10:47:02;7.00;95.69
69776;DHT22;57049;51.450;-2.516;2024-03-06T10:49:29;7.12;96.16
69776;DHT22;57049;51.450;-2.516;2024-03-06T10:52:02;7.26;95.68
69776;DHT22;57049;51.450;-2.516;2024-03-06T10:54:31;7.34;95.91
69776;DHT22;57049;51.450;-2.516;2024-03-06T10:56:57;7.40;95.71
69776;DHT22;57049;51.450;-2.516;2024-03-06T10:59:27;7.48;95.58
69776;DHT22;57049;51.450;-2.516;2024-03-06T11:01:57;7.64;95.73
69776;DHT22;57049;51.450;-2.516;2024-03-06T11:04:26;7.68;94.93
69776;DHT22;57049;51.450;-2.516;2024-03-06T11:06:56;7.73;94.67
69776;DHT22;57049;51.450;-2.516;2024-03-06T11:09:25;7.78;94.55
69776;DHT22;57049;51.450;-2.516;2024-03-06T11:11:52;7.81;94.49
69776;DHT22;57049;51.450;-2.516;2024-03-06T11:14:21;7.88;94.40
69776;DHT22;57049;51.450;-2.516;2024-03-06T11:19:27;8.03;93.44
69776;DHT22;57049;51.450;-2.516;2024-03-06T11:21:52;8.10;93.06
69776;DHT22;57049;51.450;-2.516;2024-03-06T11:24:23;8.13;93.03
69776;DHT22;57049;51.450;-2.516;2024-03-06T11:26:54;8.24;92.15
69776;DHT22;57049;51.450;-2.516;2024-03-06T11:29:22;8.32;92.61
69776;DHT22;57049;51.450;-2.516;2024-03-06T11:32:07;8.46;91.89
69776;DHT22;57049;51.450;-2.516;2024-03-06T11:34:41;8.43;91.79
69776;DHT22;57049;51.450;-2.516;2024-03-06T11:37:09;8.42;92.12
69776;DHT22;57049;51.450;-2.516;2024-03-06T11:39:41;8.53;92.06
69776;DHT22;57049;51.450;-2.516;2024-03-06T11:42:10;8.64;91.92
69776;DHT22;57049;51.450;-2.516;2024-03-06T11:44:37;8.73;91.41
69776;DHT22;57049;51.450;-2.516;2024-03-06T11:47:07;8.87;90.98
69776;DHT22;57049;51.450;-2.516;2024-03-06T11:49:41;8.97;90.37
69776;DHT22;57049;51.450;-2.516;2024-03-06T11:52:17;8.97;88.81
69776;DHT22;57049;51.450;-2.516;2024-03-06T11:54:45;9.01;87.82
69776;DHT22;57049;51.450;-2.516;2024-03-06T11:57:13;9.05;88.85
69776;DHT22;57049;51.450;-2.516;2024-03-06T11:59:47;9.14;88.31
69776;DHT22;57049;51.450;-2.516;2024-03-06T12:02:16;9.18;87.68
69776;DHT22;57049;51.450;-2.516;2024-03-06T12:04:46;9.31;87.89
69776;DHT22;57049;51.450;-2.516;2024-03-06T12:07:13;9.35;87.84
69776;DHT22;57049;51.450;-2.516;2024-03-06T12:09:57;9.43;88.24
69776;DHT22;57049;51.450;-2.516;2024-03-06T12:12:24;9.53;86.82
69776;DHT22;57049;51.450;-2.516;2024-03-06T12:14:59;9.59;86.39
69776;DHT22;57049;51.450;-2.516;2024-03-06T12:17:44;9.56;87.30
69776;DHT22;57049;51.450;-2.516;2024-03-06T12:23:31;9.65;85.80
69776;DHT22;57049;51.450;-2.516;2024-03-06T12:26:04;9.69;85.35
69776;DHT22;57049;51.450;-2.516;2024-03-06T12:28:37;9.75;85.61
69776;DHT22;57049;51.450;-2.516;2024-03-06T12:31:08;9.83;85.82
69776;DHT22;57049;51.450;-2.516;2024-03-06T12:33:37;9.87;86.18
69776;DHT22;57049;51.450;-2.516;2024-03-06T12:36:08;9.92;85.75
69776;DHT22;57049;51.450;-2.516;2024-03-06T12:38:39;9.99;85.34
69776;DHT22;57049;51.450;-2.516;2024-03-06T12:41:05;9.93;84.92
69776;DHT22;57049;51.450;-2.516;2024-03-06T12:43:36;10.09;84.38
69776;DHT22;57049;51.450;-2.516;2024-03-06T12:46:08;10.18;84.62
69776;DHT22;57049;51.450;-2.516;2024-03-06T12:48:34;10.23;84.56
69776;DHT22;57049;51.450;-2.516;2024-03-06T12:50:59;10.27;83.31
69776;DHT22;57049;51.450;-2.516;2024-03-06T12:53:32;10.48;84.02
69776;DHT22;57049;51.450;-2.516;2024-03-06T12:56:03;10.61;84.01
69776;DHT22;57049;51.450;-2.516;2024-03-06T12:58:29;10.67;82.30
69776;DHT22;57049;51.450;-2.516;2024-03-06T13:01:04;10.67;82.17
69776;DHT22;57049;51.450;-2.516;2024-03-06T13:03:35;10.68;82.45
69776;DHT22;57049;51.450;-2.516;2024-03-06T13:06:06;10.84;82.92
69776;DHT22;57049;51.450;-2.516;2024-03-06T13:08:40;10.81;82.46
69776;DHT22;57049;51.450;-2.516;2024-03-06T13:11:15;10.85;82.15
69776;DHT22;57049;51.450;-2.516;2024-03-06T13:13:44;10.99;82.31
69776;DHT22;57049;51.450;-2.516;2024-03-06T13:16:19;11.05;81.55
69776;DHT22;57049;51.450;-2.516;2024-03-06T13:18:54;11.12;79.87
69776;DHT22;57049;51.450;-2.516;2024-03-06T13:21:22;11.22;79.76
69776;DHT22;57049;51.450;-2.516;2024-03-06T13:23:48;11.42;78.08
69776;DHT22;57049;51.450;-2.516;2024-03-06T13:26:35;11.74;77.90
69776;DHT22;57049;51.450;-2.516;2024-03-06T13:29:14;12.04;77.28
69776;DHT22;57049;51.450;-2.516;2024-03-06T13:31:47;12.25;76.27
69776;DHT22;57049;51.450;-2.516;2024-03-06T13:34:16;12.49;73.75
69776;DHT22;57049;51.450;-2.516;2024-03-06T13:36:42;12.72;72.79
69776;DHT22;57049;51.450;-2.516;2024-03-06T13:39:14;12.86;72.08
69776;DHT22;57049;51.450;-2.516;2024-03-06T13:41:47;13.02;73.16
69776;DHT22;57049;51.450;-2.516;2024-03-06T13:44:35;13.00;72.72
69776;DHT22;57049;51.450;-2.516;2024-03-06T13:47:43;12.95;70.71
69776;DHT22;57049;51.450;-2.516;2024-03-06T13:50:20;12.82;69.92
69776;DHT22;57049;51.450;-2.516;2024-03-06T13:53:04;13.23;71.63
69776;DHT22;57049;51.450;-2.516;2024-03-06T13:55:42;13.23;70.83
69776;DHT22;57049;51.450;-2.516;2024-03-06T13:58:39;13.16;69.97
69776;DHT22;57049;51.450;-2.516;2024-03-06T14:01:26;13.27;69.96
69776;DHT22;57049;51.450;-2.516;2024-03-06T14:07:26;13.43;69.95
69776;DHT22;57049;51.450;-2.516;2024-03-06T14:10:13;13.19;69.75
69776;DHT22;57049;51.450;-2.516;2024-03-06T14:15:49;12.62;70.46
69776;DHT22;57049;51.450;-2.516;2024-03-06T14:18:52;12.29;71.39
69776;DHT22;57049;51.450;-2.516;2024-03-06T14:25:24;12.58;69.38
69776;DHT22;57049;51.450;-2.516;2024-03-06T14:28:17;12.35;68.83
69776;DHT22;57049;51.450;-2.516;2024-03-06T14:34:15;12.52;70.41
69776;DHT22;57049;51.450;-2.516;2024-03-06T14:36:54;12.56;69.31
69776;DHT22;57049;51.450;-2.516;2024-03-06T14:39:22;12.83;70.47
69776;DHT22;57049;51.450;-2.516;2024-03-06T14:41:55;12.89;69.45
69776;DHT22;57049;51.450;-2.516;2024-03-06T14:44:33;12.90;68.83
69776;DHT22;57049;51.450;-2.516;2024-03-06T14:47:03;12.92;69.65
69776;DHT22;57049;51.450;-2.516;2024-03-06T14:49:34;12.83;69.10
69776;DHT22;57049;51.450;-2.516;2024-03-06T14:52:12;12.78;68.53
69776;DHT22;57049;51.450;-2.516;2024-03-06T14:54:51;12.65;65.78
69776;DHT22;57049;51.450;-2.516;2024-03-06T14:57:16;12.65;65.03
69776;DHT22;57049;51.450;-2.516;2024-03-06T14:59:46;12.46;64.32
69776;DHT22;57049;51.450;-2.516;2024-03-06T15:02:12;12.29;66.04
69776;DHT22;57049;51.450;-2.516;2024-03-06T15:04:38;12.31;66.15
69776;DHT22;57049;51.450;-2.516;2024-03-06T15:07:09;12.24;65.66
69776;DHT22;57049;51.450;-2.516;2024-03-06T15:09:39;12.18;64.56
69776;DHT22;57049;51.450;-2.516;2024-03-06T15:14:55;12.31;65.32
69776;DHT22;57049;51.450;-2.516;2024-03-06T15:17:23;12.20;65.76
69776;DHT22;57049;51.450;-2.516;2024-03-06T15:19:58;12.01;66.44
69776;DHT22;57049;51.450;-2.516;2024-03-06T15:22:26;11.93;66.45
69776;DHT22;57049;51.450;-2.516;2024-03-06T15:24:51;11.91;66.90
69776;DHT22;57049;51.450;-2.516;2024-03-06T15:27:17;11.95;66.06
69776;DHT22;57049;51.450;-2.516;2024-03-06T15:29:42;11.95;66.06
69776;DHT22;57049;51.450;-2.516;2024-03-06T15:32:09;11.95;65.63
69776;DHT22;57049;51.450;-2.516;2024-03-06T15:34:35;11.95;65.58
69776;DHT22;57049;51.450;-2.516;2024-03-06T15:37:01;11.91;65.75
69776;DHT22;57049;51.450;-2.516;2024-03-06T15:39:28;11.83;65.68
69776;DHT22;57049;51.450;-2.516;2024-03-06T15:41:53;11.87;65.71
69776;DHT22;57049;51.450;-2.516;2024-03-06T15:44:19;11.87;67.03
69776;DHT22;57049;51.450;-2.516;2024-03-06T15:46:44;11.86;66.06
69776;DHT22;57049;51.450;-2.516;2024-03-06T15:49:23;11.80;66.70
69776;DHT22;57049;51.450;-2.516;2024-03-06T15:51:53;11.60;66.77
69776;DHT22;57049;51.450;-2.516;2024-03-06T15:54:20;11.37;67.77
69776;DHT22;57049;51.450;-2.516;2024-03-06T15:56:45;11.26;69.21